sensor_id;sensor_type;location;lat;lon;timestamp;P1;durP1;ratioP1;P2;durP2;ratioP2
31386;SDS011;18017;50.124;8.688;2022-10-16T00:00:22;5.07;;;1.70;;
31386;SDS011;18017;50.124;8.688;2022-10-16T00:02:48;8.85;;;1.60;;
31386;SDS011;18017;50.124;8.688;2022-10-16T00:05:14;3.58;;;1.55;;
31386;SDS011;18017;50.124;8.688;2022-10-16T00:07:39;3.08;;;1.60;;
31386;SDS011;18017;50.124;8.688;2022-10-16T00:10:05;2.95;;;1.45;;
31386;SDS011;18017;50.124;8.688;2022-10-16T00:12:31;2.42;;;1.38;;
31386;SDS011;18017;50.124;8.688;2022-10-16T00:14:56;5.60;;;1.70;;
31386;SDS011;18017;50.124;8.688;2022-10-16T00:17:22;3.58;;;1.50;;
31386;SDS011;18017;50.124;8.688;2022-10-16T00:19:47;5.97;;;1.40;;
31386;SDS011;18017;50.124;8.688;2022-10-16T00:22:13;3.88;;;1.60;;
31386;SDS011;18017;50.124;8.688;2022-10-16T00:24:38;5.47;;;1.65;;
31386;SDS011;18017;50.124;8.688;2022-10-16T00:27:04;3.28;;;1.35;;
31386;SDS011;18017;50.124;8.688;2022-10-16T00:29:29;5.65;;;1.40;;
31386;SDS011;18017;50.124;8.688;2022-10-16T00:31:55;2.30;;;1.50;;
31386;SDS011;18017;50.124;8.688;2022-10-16T00:34:20;6.07;;;1.50;;
31386;SDS011;18017;50.124;8.688;2022-10-16T00:36:46;3.17;;;1.20;;
31386;SDS011;18017;50.124;8.688;2022-10-16T00:39:12;5.45;;;1.52;;
31386;SDS011;18017;50.124;8.688;2022-10-16T00:41:37;5.18;;;1.70;;
31386;SDS011;18017;50.124;8.688;2022-10-16T00:44:04;4.78;;;1.25;;
31386;SDS011;18017;50.124;8.688;2022-10-16T00:47:08;4.95;;;1.42;;
31386;SDS011;18017;50.124;8.688;2022-10-16T00:49:35;3.17;;;1.08;;
31386;SDS011;18017;50.124;8.688;2022-10-16T00:52:01;4.95;;;1.20;;
31386;SDS011;18017;50.124;8.688;2022-10-16T00:54:28;4.63;;;1.13;;
31386;SDS011;18017;50.124;8.688;2022-10-16T00:56:56;5.60;;;1.52;;
31386;SDS011;18017;50.124;8.688;2022-10-16T00:59:27;4.28;;;1.25;;
31386;SDS011;18017;50.124;8.688;2022-10-16T01:01:53;3.55;;;1.23;;
31386;SDS011;18017;50.124;8.688;2022-10-16T01:04:20;5.60;;;1.00;;
31386;SDS011;18017;50.124;8.688;2022-10-16T01:09:21;2.92;;;0.80;;
31386;SDS011;18017;50.124;8.688;2022-10-16T01:14:56;3.53;;;0.80;;
31386;SDS011;18017;50.124;8.688;2022-10-16T01:20:31;3.60;;;1.08;;
31386;SDS011;18017;50.124;8.688;2022-10-16T01:23:07;7.00;;;1.10;;
31386;SDS011;18017;50.124;8.688;2022-10-16T01:28:36;2.63;;;1.52;;
31386;SDS011;18017;50.124;8.688;2022-10-16T01:31:07;2.45;;;1.00;;
31386;SDS011;18017;50.124;8.688;2022-10-16T01:33:39;1.95;;;0.60;;
31386;SDS011;18017;50.124;8.688;2022-10-16T01:36:10;4.53;;;0.90;;
31386;SDS011;18017;50.124;8.688;2022-10-16T01:38:39;3.47;;;0.70;;
31386;SDS011;18017;50.124;8.688;2022-10-16T01:41:11;2.92;;;0.90;;
31386;SDS011;18017;50.124;8.688;2022-10-16T01:43:46;3.08;;;0.80;;
31386;SDS011;18017;50.124;8.688;2022-10-16T01:46:20;2.03;;;0.70;;
31386;SDS011;18017;50.124;8.688;2022-10-16T01:48:48;6.53;;;0.70;;
31386;SDS011;18017;50.124;8.688;2022-10-16T01:51:15;1.60;;;0.60;;
31386;SDS011;18017;50.124;8.688;2022-10-16T01:53:44;2.10;;;0.63;;
31386;SDS011;18017;50.124;8.688;2022-10-16T01:56:13;6.53;;;0.88;;
31386;SDS011;18017;50.124;8.688;2022-10-16T01:58:42;5.10;;;0.73;;
31386;SDS011;18017;50.124;8.688;2022-10-16T02:01:21;3.88;;;0.70;;
31386;SDS011;18017;50.124;8.688;2022-10-16T02:03:49;3.33;;;0.60;;
31386;SDS011;18017;50.124;8.688;2022-10-16T02:06:18;1.00;;;0.30;;
31386;SDS011;18017;50.124;8.688;2022-10-16T02:08:44;1.52;;;0.47;;
31386;SDS011;18017;50.124;8.688;2022-10-16T02:11:10;2.15;;;0.45;;
31386;SDS011;18017;50.124;8.688;2022-10-16T02:13:53;2.22;;;0.40;;
31386;SDS011;18017;50.124;8.688;2022-10-16T02:16:32;1.52;;;0.50;;
31386;SDS011;18017;50.124;8.688;2022-10-16T02:19:03;1.23;;;0.30;;
31386;SDS011;18017;50.124;8.688;2022-10-16T02:21:30;1.45;;;0.30;;
31386;SDS011;18017;50.124;8.688;2022-10-16T02:29:50;1.58;;;0.30;;
31386;SDS011;18017;50.124;8.688;2022-10-16T02:32:24;1.17;;;0.30;;
31386;SDS011;18017;50.124;8.688;2022-10-16T02:34:52;0.57;;;0.20;;
31386;SDS011;18017;50.124;8.688;2022-10-16T02:37:19;2.85;;;0.30;;
31386;SDS011;18017;50.124;8.688;2022-10-16T02:39:45;2.03;;;0.30;;
31386;SDS011;18017;50.124;8.688;2022-10-16T02:42:14;0.80;;;0.25;;
31386;SDS011;18017;50.124;8.688;2022-10-16T02:44:42;5.75;;;0.30;;
31386;SDS011;18017;50.124;8.688;2022-10-16T02:47:07;0.95;;;0.30;;
31386;SDS011;18017;50.124;8.688;2022-10-16T02:49:33;4.30;;;0.50;;
31386;SDS011;18017;50.124;8.688;2022-10-16T02:51:59;3.97;;;0.28;;
31386;SDS011;18017;50.124;8.688;2022-10-16T02:54:24;0.98;;;0.30;;
31386;SDS011;18017;50.124;8.688;2022-10-16T02:56:50;1.95;;;0.30;;
31386;SDS011;18017;50.124;8.688;2022-10-16T02:59:15;0.43;;;0.20;;
31386;SDS011;18017;50.124;8.688;2022-10-16T03:01:41;0.30;;;0.10;;
31386;SDS011;18017;50.124;8.688;2022-10-16T03:04:06;2.95;;;0.20;;
31386;SDS011;18017;50.124;8.688;2022-10-16T03:06:32;0.80;;;0.20;;
31386;SDS011;18017;50.124;8.688;2022-10-16T03:08:58;0.80;;;0.30;;
31386;SDS011;18017;50.124;8.688;2022-10-16T03:11:23;2.47;;;0.25;;
31386;SDS011;18017;50.124;8.688;2022-10-16T03:13:49;2.85;;;0.40;;
31386;SDS011;18017;50.124;8.688;2022-10-16T03:16:14;0.38;;;0.10;;
31386;SDS011;18017;50.124;8.688;2022-10-16T03:18:40;3.70;;;0.30;;
31386;SDS011;18017;50.124;8.688;2022-10-16T03:21:05;0.70;;;0.20;;
31386;SDS011;18017;50.124;8.688;2022-10-16T03:23:31;2.30;;;0.30;;
31386;SDS011;18017;50.124;8.688;2022-10-16T03:25:57;0.88;;;0.20;;
31386;SDS011;18017;50.124;8.688;2022-10-16T03:28:22;0.20;;;0.10;;
31386;SDS011;18017;50.124;8.688;2022-10-16T03:30:48;1.63;;;0.20;;
31386;SDS011;18017;50.124;8.688;2022-10-16T03:33:13;5.20;;;0.30;;
31386;SDS011;18017;50.124;8.688;2022-10-16T03:35:39;1.17;;;0.10;;
31386;SDS011;18017;50.124;8.688;2022-10-16T03:38:04;0.35;;;0.20;;
31386;SDS011;18017;50.124;8.688;2022-10-16T03:40:30;1.33;;;0.38;;
31386;SDS011;18017;50.124;8.688;2022-10-16T03:42:57;1.75;;;0.20;;
31386;SDS011;18017;50.124;8.688;2022-10-16T03:45:23;2.88;;;0.20;;
31386;SDS011;18017;50.124;8.688;2022-10-16T03:47:49;2.40;;;0.30;;
31386;SDS011;18017;50.124;8.688;2022-10-16T03:50:14;0.30;;;0.20;;
31386;SDS011;18017;50.124;8.688;2022-10-16T03:52:40;1.63;;;0.30;;
31386;SDS011;18017;50.124;8.688;2022-10-16T03:55:09;0.82;;;0.20;;
31386;SDS011;18017;50.124;8.688;2022-10-16T03:57:34;4.55;;;0.47;;
31386;SDS011;18017;50.124;8.688;2022-10-16T04:00:00;0.85;;;0.20;;
31386;SDS011;18017;50.124;8.688;2022-10-16T04:02:26;1.92;;;0.17;;
31386;SDS011;18017;50.124;8.688;2022-10-16T04:04:51;0.30;;;0.10;;
31386;SDS011;18017;50.124;8.688;2022-10-16T04:07:17;0.68;;;0.10;;
31386;SDS011;18017;50.124;8.688;2022-10-16T04:09:43;3.90;;;0.30;;
31386;SDS011;18017;50.124;8.688;2022-10-16T04:12:08;1.88;;;0.20;;
31386;SDS011;18017;50.124;8.688;2022-10-16T04:14:34;0.65;;;0.20;;
31386;SDS011;18017;50.124;8.688;2022-10-16T04:16:59;0.98;;;0.20;;
31386;SDS011;18017;50.124;8.688;2022-10-16T04:19:25;0.38;;;0.10;;
31386;SDS011;18017;50.124;8.688;2022-10-16T04:21:51;3.08;;;0.20;;
31386;SDS011;18017;50.124;8.688;2022-10-16T04:24:16;1.40;;;0.30;;
31386;SDS011;18017;50.124;8.688;2022-10-16T04:26:42;3.10;;;0.22;;
31386;SDS011;18017;50.124;8.688;2022-10-16T04:29:08;0.45;;;0.30;;
31386;SDS011;18017;50.124;8.688;2022-10-16T04:31:33;1.17;;;0.43;;
31386;SDS011;18017;50.124;8.688;2022-10-16T04:33:59;4.45;;;0.22;;
31386;SDS011;18017;50.124;8.688;2022-10-16T04:36:24;1.27;;;0.30;;
31386;SDS011;18017;50.124;8.688;2022-10-16T04:38:50;0.57;;;0.20;;
31386;SDS011;18017;50.124;8.688;2022-10-16T04:41:15;2.40;;;0.30;;
31386;SDS011;18017;50.124;8.688;2022-10-16T04:43:41;3.25;;;0.30;;
31386;SDS011;18017;50.124;8.688;2022-10-16T04:46:06;1.48;;;0.20;;
31386;SDS011;18017;50.124;8.688;2022-10-16T04:48:32;2.03;;;0.30;;
31386;SDS011;18017;50.124;8.688;2022-10-16T04:50:57;0.50;;;0.20;;
31386;SDS011;18017;50.124;8.688;2022-10-16T04:53:23;1.15;;;0.30;;
31386;SDS011;18017;50.124;8.688;2022-10-16T04:55:49;2.15;;;0.40;;
31386;SDS011;18017;50.124;8.688;2022-10-16T04:58:15;1.45;;;0.20;;
31386;SDS011;18017;50.124;8.688;2022-10-16T05:00:41;1.65;;;0.30;;
31386;SDS011;18017;50.124;8.688;2022-10-16T05:03:07;1.92;;;0.20;;
31386;SDS011;18017;50.124;8.688;2022-10-16T05:05:34;1.20;;;0.30;;
31386;SDS011;18017;50.124;8.688;2022-10-16T05:08:00;1.08;;;0.25;;
31386;SDS011;18017;50.124;8.688;2022-10-16T05:10:26;2.10;;;0.32;;
31386;SDS011;18017;50.124;8.688;2022-10-16T05:12:51;8.57;;;0.52;;
31386;SDS011;18017;50.124;8.688;2022-10-16T05:15:17;1.35;;;0.43;;
31386;SDS011;18017;50.124;8.688;2022-10-16T05:17:43;1.67;;;0.30;;
31386;SDS011;18017;50.124;8.688;2022-10-16T05:20:09;0.95;;;0.40;;
31386;SDS011;18017;50.124;8.688;2022-10-16T05:22:34;0.68;;;0.20;;
31386;SDS011;18017;50.124;8.688;2022-10-16T05:25:00;2.60;;;0.20;;
31386;SDS011;18017;50.124;8.688;2022-10-16T05:27:25;2.80;;;0.30;;
31386;SDS011;18017;50.124;8.688;2022-10-16T05:29:51;3.38;;;0.47;;
31386;SDS011;18017;50.124;8.688;2022-10-16T05:32:17;5.63;;;0.30;;
31386;SDS011;18017;50.124;8.688;2022-10-16T05:34:44;1.85;;;0.57;;
31386;SDS011;18017;50.124;8.688;2022-10-16T05:37:10;1.95;;;0.30;;
31386;SDS011;18017;50.124;8.688;2022-10-16T05:39:36;1.77;;;0.38;;
31386;SDS011;18017;50.124;8.688;2022-10-16T05:42:02;2.15;;;0.25;;
31386;SDS011;18017;50.124;8.688;2022-10-16T05:44:28;1.95;;;0.50;;
31386;SDS011;18017;50.124;8.688;2022-10-16T05:46:54;2.35;;;0.40;;
31386;SDS011;18017;50.124;8.688;2022-10-16T05:49:20;4.40;;;0.40;;
31386;SDS011;18017;50.124;8.688;2022-10-16T05:51:45;1.00;;;0.40;;
31386;SDS011;18017;50.124;8.688;2022-10-16T05:54:11;2.38;;;0.55;;
31386;SDS011;18017;50.124;8.688;2022-10-16T05:56:36;4.38;;;0.20;;
31386;SDS011;18017;50.124;8.688;2022-10-16T05:59:05;2.85;;;0.30;;
31386;SDS011;18017;50.124;8.688;2022-10-16T06:01:30;0.80;;;0.38;;
31386;SDS011;18017;50.124;8.688;2022-10-16T06:03:57;1.60;;;0.40;;
31386;SDS011;18017;50.124;8.688;2022-10-16T06:06:24;3.40;;;0.35;;
31386;SDS011;18017;50.124;8.688;2022-10-16T06:08:52;1.83;;;0.40;;
31386;SDS011;18017;50.124;8.688;2022-10-16T06:11:22;2.20;;;0.30;;
31386;SDS011;18017;50.124;8.688;2022-10-16T06:13:53;0.68;;;0.30;;
31386;SDS011;18017;50.124;8.688;2022-10-16T06:16:21;3.70;;;0.30;;
31386;SDS011;18017;50.124;8.688;2022-10-16T06:18:49;1.70;;;0.30;;
31386;SDS011;18017;50.124;8.688;2022-10-16T06:21:17;2.60;;;0.50;;
31386;SDS011;18017;50.124;8.688;2022-10-16T06:23:44;3.28;;;0.40;;
31386;SDS011;18017;50.124;8.688;2022-10-16T06:26:14;2.70;;;0.60;;
31386;SDS011;18017;50.124;8.688;2022-10-16T06:28:42;1.25;;;0.43;;
31386;SDS011;18017;50.124;8.688;2022-10-16T06:31:08;1.70;;;0.50;;
31386;SDS011;18017;50.124;8.688;2022-10-16T06:33:34;3.70;;;0.50;;
31386;SDS011;18017;50.124;8.688;2022-10-16T06:36:01;0.57;;;0.38;;
31386;SDS011;18017;50.124;8.688;2022-10-16T06:38:32;5.68;;;0.40;;
31386;SDS011;18017;50.124;8.688;2022-10-16T06:40:57;1.17;;;0.50;;
31386;SDS011;18017;50.124;8.688;2022-10-16T06:43:23;3.58;;;0.40;;
31386;SDS011;18017;50.124;8.688;2022-10-16T06:45:50;2.80;;;0.40;;
31386;SDS011;18017;50.124;8.688;2022-10-16T06:48:20;2.42;;;0.70;;
31386;SDS011;18017;50.124;8.688;2022-10-16T06:50:56;3.03;;;0.88;;
31386;SDS011;18017;50.124;8.688;2022-10-16T06:53:27;4.50;;;0.57;;
31386;SDS011;18017;50.124;8.688;2022-10-16T06:55:54;4.80;;;1.40;;
31386;SDS011;18017;50.124;8.688;2022-10-16T06:58:20;3.72;;;1.40;;
31386;SDS011;18017;50.124;8.688;2022-10-16T07:00:46;6.93;;;2.17;;
31386;SDS011;18017;50.124;8.688;2022-10-16T07:03:11;3.22;;;1.55;;
31386;SDS011;18017;50.124;8.688;2022-10-16T07:05:38;4.60;;;1.83;;
31386;SDS011;18017;50.124;8.688;2022-10-16T07:08:07;4.82;;;1.80;;
31386;SDS011;18017;50.124;8.688;2022-10-16T07:10:33;6.40;;;2.22;;
31386;SDS011;18017;50.124;8.688;2022-10-16T07:12:59;9.20;;;2.35;;
31386;SDS011;18017;50.124;8.688;2022-10-16T07:15:25;4.38;;;2.15;;
31386;SDS011;18017;50.124;8.688;2022-10-16T07:17:51;7.95;;;2.25;;
31386;SDS011;18017;50.124;8.688;2022-10-16T07:20:17;8.18;;;1.80;;
31386;SDS011;18017;50.124;8.688;2022-10-16T07:22:42;6.57;;;2.28;;
31386;SDS011;18017;50.124;8.688;2022-10-16T07:25:08;5.63;;;2.30;;
31386;SDS011;18017;50.124;8.688;2022-10-16T07:27:33;5.15;;;1.77;;
31386;SDS011;18017;50.124;8.688;2022-10-16T07:29:59;4.20;;;1.50;;
31386;SDS011;18017;50.124;8.688;2022-10-16T07:32:25;3.38;;;1.55;;
31386;SDS011;18017;50.124;8.688;2022-10-16T07:34:51;2.75;;;1.65;;
31386;SDS011;18017;50.124;8.688;2022-10-16T07:37:17;8.45;;;1.80;;
31386;SDS011;18017;50.124;8.688;2022-10-16T07:39:43;7.57;;;1.50;;
31386;SDS011;18017;50.124;8.688;2022-10-16T07:42:08;3.38;;;1.35;;
31386;SDS011;18017;50.124;8.688;2022-10-16T07:44:34;5.35;;;1.52;;
31386;SDS011;18017;50.124;8.688;2022-10-16T07:46:59;3.35;;;1.17;;
31386;SDS011;18017;50.124;8.688;2022-10-16T07:49:25;6.63;;;1.30;;
31386;SDS011;18017;50.124;8.688;2022-10-16T07:51:50;9.60;;;1.10;;
31386;SDS011;18017;50.124;8.688;2022-10-16T07:54:16;3.40;;;1.15;;
31386;SDS011;18017;50.124;8.688;2022-10-16T07:56:42;5.28;;;1.58;;
31386;SDS011;18017;50.124;8.688;2022-10-16T07:59:08;5.95;;;1.55;;
31386;SDS011;18017;50.124;8.688;2022-10-16T08:01:33;4.97;;;1.23;;
31386;SDS011;18017;50.124;8.688;2022-10-16T08:03:59;3.22;;;1.27;;
31386;SDS011;18017;50.124;8.688;2022-10-16T08:06:25;4.60;;;1.20;;
31386;SDS011;18017;50.124;8.688;2022-10-16T08:08:50;5.97;;;1.50;;
31386;SDS011;18017;50.124;8.688;2022-10-16T08:11:16;4.28;;;1.40;;
31386;SDS011;18017;50.124;8.688;2022-10-16T08:13:41;3.25;;;1.20;;
31386;SDS011;18017;50.124;8.688;2022-10-16T08:16:07;5.20;;;1.45;;
31386;SDS011;18017;50.124;8.688;2022-10-16T08:18:35;4.25;;;1.30;;
31386;SDS011;18017;50.124;8.688;2022-10-16T08:21:01;2.97;;;1.13;;
31386;SDS011;18017;50.124;8.688;2022-10-16T08:23:27;5.80;;;1.10;;
31386;SDS011;18017;50.124;8.688;2022-10-16T08:25:54;7.65;;;1.75;;
31386;SDS011;18017;50.124;8.688;2022-10-16T08:28:20;2.42;;;1.10;;
31386;SDS011;18017;50.124;8.688;2022-10-16T08:30:46;4.38;;;1.10;;
31386;SDS011;18017;50.124;8.688;2022-10-16T08:33:12;2.97;;;1.42;;
31386;SDS011;18017;50.124;8.688;2022-10-16T08:35:38;1.77;;;0.98;;
31386;SDS011;18017;50.124;8.688;2022-10-16T08:38:04;8.18;;;1.40;;
31386;SDS011;18017;50.124;8.688;2022-10-16T08:40:31;3.85;;;0.95;;
31386;SDS011;18017;50.124;8.688;2022-10-16T08:48:27;1.85;;;1.00;;
31386;SDS011;18017;50.124;8.688;2022-10-16T08:51:00;2.72;;;1.25;;
31386;SDS011;18017;50.124;8.688;2022-10-16T08:53:46;1.88;;;1.10;;
31386;SDS011;18017;50.124;8.688;2022-10-16T08:56:13;4.05;;;1.42;;
31386;SDS011;18017;50.124;8.688;2022-10-16T08:58:39;4.68;;;1.60;;
31386;SDS011;18017;50.124;8.688;2022-10-16T09:01:10;2.95;;;1.70;;
31386;SDS011;18017;50.124;8.688;2022-10-16T09:06:29;2.20;;;1.30;;
31386;SDS011;18017;50.124;8.688;2022-10-16T09:11:59;6.32;;;1.42;;
31386;SDS011;18017;50.124;8.688;2022-10-16T09:14:45;8.40;;;1.58;;
31386;SDS011;18017;50.124;8.688;2022-10-16T09:20:19;2.90;;;1.40;;
31386;SDS011;18017;50.124;8.688;2022-10-16T09:22:53;4.25;;;1.30;;
31386;SDS011;18017;50.124;8.688;2022-10-16T09:25:41;2.53;;;1.35;;
31386;SDS011;18017;50.124;8.688;2022-10-16T09:28:10;7.65;;;1.80;;
31386;SDS011;18017;50.124;8.688;2022-10-16T09:30:36;5.38;;;1.45;;
31386;SDS011;18017;50.124;8.688;2022-10-16T09:33:04;7.43;;;1.98;;
31386;SDS011;18017;50.124;8.688;2022-10-16T09:35:32;2.55;;;1.80;;
31386;SDS011;18017;50.124;8.688;2022-10-16T09:38:03;6.80;;;2.38;;
31386;SDS011;18017;50.124;8.688;2022-10-16T09:40:36;7.03;;;2.58;;
31386;SDS011;18017;50.124;8.688;2022-10-16T09:43:22;5.50;;;2.50;;
31386;SDS011;18017;50.124;8.688;2022-10-16T09:45:56;4.15;;;2.60;;
31386;SDS011;18017;50.124;8.688;2022-10-16T09:48:23;8.13;;;2.42;;
31386;SDS011;18017;50.124;8.688;2022-10-16T09:50:58;5.40;;;2.22;;
31386;SDS011;18017;50.124;8.688;2022-10-16T09:53:26;6.95;;;2.58;;
31386;SDS011;18017;50.124;8.688;2022-10-16T09:56:21;6.22;;;2.55;;
31386;SDS011;18017;50.124;8.688;2022-10-16T09:58:49;6.45;;;2.03;;
31386;SDS011;18017;50.124;8.688;2022-10-16T10:01:16;4.35;;;2.10;;
31386;SDS011;18017;50.124;8.688;2022-10-16T10:03:43;3.67;;;1.80;;
31386;SDS011;18017;50.124;8.688;2022-10-16T10:06:24;5.93;;;1.98;;
31386;SDS011;18017;50.124;8.688;2022-10-16T10:08:58;3.72;;;1.80;;
31386;SDS011;18017;50.124;8.688;2022-10-16T10:11:40;5.32;;;2.10;;
31386;SDS011;18017;50.124;8.688;2022-10-16T10:14:13;4.82;;;1.98;;
31386;SDS011;18017;50.124;8.688;2022-10-16T10:16:43;4.03;;;1.92;;
31386;SDS011;18017;50.124;8.688;2022-10-16T10:19:19;3.70;;;1.55;;
31386;SDS011;18017;50.124;8.688;2022-10-16T10:21:49;2.53;;;1.10;;
31386;SDS011;18017;50.124;8.688;2022-10-16T10:24:17;2.83;;;1.00;;
31386;SDS011;18017;50.124;8.688;2022-10-16T10:27:05;5.28;;;0.80;;
31386;SDS011;18017;50.124;8.688;2022-10-16T10:32:22;4.00;;;0.60;;
31386;SDS011;18017;50.124;8.688;2022-10-16T10:35:03;1.25;;;0.80;;
31386;SDS011;18017;50.124;8.688;2022-10-16T10:37:48;5.45;;;1.20;;
31386;SDS011;18017;50.124;8.688;2022-10-16T10:43:19;3.13;;;1.17;;
31386;SDS011;18017;50.124;8.688;2022-10-16T10:46:03;2.78;;;1.63;;
31386;SDS011;18017;50.124;8.688;2022-10-16T10:51:20;3.70;;;1.25;;
31386;SDS011;18017;50.124;8.688;2022-10-16T11:10:47;2.80;;;1.70;;
31386;SDS011;18017;50.124;8.688;2022-10-16T11:15:53;2.00;;;1.20;;
31386;SDS011;18017;50.124;8.688;2022-10-16T11:21:08;4.43;;;1.20;;
31386;SDS011;18017;50.124;8.688;2022-10-16T11:23:42;3.15;;;1.17;;
31386;SDS011;18017;50.124;8.688;2022-10-16T11:26:44;2.45;;;1.20;;
31386;SDS011;18017;50.124;8.688;2022-10-16T11:29:15;1.23;;;0.90;;
31386;SDS011;18017;50.124;8.688;2022-10-16T11:31:52;2.38;;;0.90;;
31386;SDS011;18017;50.124;8.688;2022-10-16T11:34:24;1.95;;;1.20;;
31386;SDS011;18017;50.124;8.688;2022-10-16T11:36:57;2.85;;;1.20;;
31386;SDS011;18017;50.124;8.688;2022-10-16T11:39:30;2.60;;;1.00;;
31386;SDS011;18017;50.124;8.688;2022-10-16T11:41:59;1.63;;;1.23;;
31386;SDS011;18017;50.124;8.688;2022-10-16T11:47:23;1.60;;;1.17;;
31386;SDS011;18017;50.124;8.688;2022-10-16T11:49:57;2.83;;;1.38;;
31386;SDS011;18017;50.124;8.688;2022-10-16T11:52:49;3.67;;;1.60;;
31386;SDS011;18017;50.124;8.688;2022-10-16T11:57:53;4.05;;;1.67;;
31386;SDS011;18017;50.124;8.688;2022-10-16T12:00:40;6.35;;;1.58;;
31386;SDS011;18017;50.124;8.688;2022-10-16T12:08:16;1.60;;;0.93;;
31386;SDS011;18017;50.124;8.688;2022-10-16T12:10:43;2.40;;;0.75;;
31386;SDS011;18017;50.124;8.688;2022-10-16T12:16:33;1.80;;;0.30;;
31386;SDS011;18017;50.124;8.688;2022-10-16T12:19:02;1.42;;;0.30;;
31386;SDS011;18017;50.124;8.688;2022-10-16T12:21:48;3.45;;;0.30;;
31386;SDS011;18017;50.124;8.688;2022-10-16T12:24:20;3.72;;;0.88;;
31386;SDS011;18017;50.124;8.688;2022-10-16T12:26:49;2.60;;;0.30;;
31386;SDS011;18017;50.124;8.688;2022-10-16T12:31:58;1.73;;;0.50;;
31386;SDS011;18017;50.124;8.688;2022-10-16T12:34:37;1.08;;;0.30;;
31386;SDS011;18017;50.124;8.688;2022-10-16T12:40:14;1.85;;;0.20;;
31386;SDS011;18017;50.124;8.688;2022-10-16T12:43:10;1.20;;;0.30;;
31386;SDS011;18017;50.124;8.688;2022-10-16T12:45:48;1.98;;;0.40;;
31386;SDS011;18017;50.124;8.688;2022-10-16T12:48:44;2.63;;;0.40;;
31386;SDS011;18017;50.124;8.688;2022-10-16T12:53:45;1.88;;;0.40;;
31386;SDS011;18017;50.124;8.688;2022-10-16T12:56:16;1.85;;;0.30;;
31386;SDS011;18017;50.124;8.688;2022-10-16T12:58:56;1.65;;;0.30;;
31386;SDS011;18017;50.124;8.688;2022-10-16T13:01:34;1.67;;;0.35;;
31386;SDS011;18017;50.124;8.688;2022-10-16T13:12:44;0.52;;;0.20;;
31386;SDS011;18017;50.124;8.688;2022-10-16T13:15:37;3.92;;;0.40;;
31386;SDS011;18017;50.124;8.688;2022-10-16T13:20:59;2.42;;;0.40;;
31386;SDS011;18017;50.124;8.688;2022-10-16T13:23:55;1.33;;;0.40;;
31386;SDS011;18017;50.124;8.688;2022-10-16T13:26:46;0.73;;;0.40;;
31386;SDS011;18017;50.124;8.688;2022-10-16T13:29:22;2.08;;;0.30;;
31386;SDS011;18017;50.124;8.688;2022-10-16T13:31:48;0.70;;;0.35;;
31386;SDS011;18017;50.124;8.688;2022-10-16T13:34:18;0.77;;;0.30;;
31386;SDS011;18017;50.124;8.688;2022-10-16T13:36:47;1.50;;;0.32;;
31386;SDS011;18017;50.124;8.688;2022-10-16T13:44:42;0.95;;;0.30;;
31386;SDS011;18017;50.124;8.688;2022-10-16T13:47:16;1.42;;;0.55;;
31386;SDS011;18017;50.124;8.688;2022-10-16T13:49:58;2.85;;;0.43;;
31386;SDS011;18017;50.124;8.688;2022-10-16T13:52:30;2.05;;;0.20;;
31386;SDS011;18017;50.124;8.688;2022-10-16T13:54:56;3.50;;;0.43;;
31386;SDS011;18017;50.124;8.688;2022-10-16T13:57:22;2.22;;;0.30;;
31386;SDS011;18017;50.124;8.688;2022-10-16T13:59:49;1.00;;;0.30;;
31386;SDS011;18017;50.124;8.688;2022-10-16T14:02:24;1.30;;;0.32;;
31386;SDS011;18017;50.124;8.688;2022-10-16T14:05:00;2.47;;;0.28;;
31386;SDS011;18017;50.124;8.688;2022-10-16T14:07:28;1.17;;;0.47;;
31386;SDS011;18017;50.124;8.688;2022-10-16T14:09:57;1.05;;;0.40;;
31386;SDS011;18017;50.124;8.688;2022-10-16T14:12:26;1.30;;;0.30;;
31386;SDS011;18017;50.124;8.688;2022-10-16T14:14:53;1.33;;;0.70;;
31386;SDS011;18017;50.124;8.688;2022-10-16T14:17:30;1.00;;;0.73;;
31386;SDS011;18017;50.124;8.688;2022-10-16T14:19:58;2.95;;;0.50;;
31386;SDS011;18017;50.124;8.688;2022-10-16T14:22:28;6.38;;;0.63;;
31386;SDS011;18017;50.124;8.688;2022-10-16T14:25:24;1.98;;;0.60;;
31386;SDS011;18017;50.124;8.688;2022-10-16T14:28:00;0.50;;;0.40;;
31386;SDS011;18017;50.124;8.688;2022-10-16T14:30:26;2.10;;;0.60;;
31386;SDS011;18017;50.124;8.688;2022-10-16T14:33:02;1.70;;;0.60;;
31386;SDS011;18017;50.124;8.688;2022-10-16T14:35:31;3.90;;;0.40;;
31386;SDS011;18017;50.124;8.688;2022-10-16T14:37:58;1.00;;;0.50;;
31386;SDS011;18017;50.124;8.688;2022-10-16T14:40:27;1.38;;;0.40;;
31386;SDS011;18017;50.124;8.688;2022-10-16T14:42:57;1.73;;;0.50;;
31386;SDS011;18017;50.124;8.688;2022-10-16T14:45:27;8.00;;;0.52;;
31386;SDS011;18017;50.124;8.688;2022-10-16T14:47:56;2.00;;;0.55;;
31386;SDS011;18017;50.124;8.688;2022-10-16T14:50:23;3.60;;;0.50;;
31386;SDS011;18017;50.124;8.688;2022-10-16T14:52:49;3.70;;;0.50;;
31386;SDS011;18017;50.124;8.688;2022-10-16T14:55:16;1.95;;;0.40;;
31386;SDS011;18017;50.124;8.688;2022-10-16T14:57:42;3.03;;;0.50;;
31386;SDS011;18017;50.124;8.688;2022-10-16T15:00:22;3.20;;;0.30;;
31386;SDS011;18017;50.124;8.688;2022-10-16T15:02:49;3.35;;;0.50;;
31386;SDS011;18017;50.124;8.688;2022-10-16T15:05:17;2.97;;;0.47;;
31386;SDS011;18017;50.124;8.688;2022-10-16T15:07:44;3.80;;;0.73;;
31386;SDS011;18017;50.124;8.688;2022-10-16T15:10:10;1.98;;;0.52;;
31386;SDS011;18017;50.124;8.688;2022-10-16T15:12:37;3.15;;;0.63;;
31386;SDS011;18017;50.124;8.688;2022-10-16T15:15:23;2.25;;;0.50;;
31386;SDS011;18017;50.124;8.688;2022-10-16T15:17:54;2.42;;;0.50;;
31386;SDS011;18017;50.124;8.688;2022-10-16T15:20:25;3.75;;;0.50;;
31386;SDS011;18017;50.124;8.688;2022-10-16T15:22:52;3.90;;;0.60;;
31386;SDS011;18017;50.124;8.688;2022-10-16T15:25:52;2.15;;;0.80;;
31386;SDS011;18017;50.124;8.688;2022-10-16T15:28:12;2.72;;;0.60;;
31386;SDS011;18017;50.124;8.688;2022-10-16T15:30:39;2.35;;;0.73;;
31386;SDS011;18017;50.124;8.688;2022-10-16T15:33:05;3.13;;;1.45;;
31386;SDS011;18017;50.124;8.688;2022-10-16T15:35:37;1.95;;;0.60;;
31386;SDS011;18017;50.124;8.688;2022-10-16T15:38:02;4.78;;;0.80;;
31386;SDS011;18017;50.124;8.688;2022-10-16T15:40:28;3.08;;;0.52;;
31386;SDS011;18017;50.124;8.688;2022-10-16T15:42:54;3.33;;;0.80;;
31386;SDS011;18017;50.124;8.688;2022-10-16T15:45:19;9.32;;;0.90;;
31386;SDS011;18017;50.124;8.688;2022-10-16T15:47:45;4.82;;;0.82;;
31386;SDS011;18017;50.124;8.688;2022-10-16T15:50:12;2.17;;;0.70;;
31386;SDS011;18017;50.124;8.688;2022-10-16T15:52:39;2.25;;;0.50;;
31386;SDS011;18017;50.124;8.688;2022-10-16T15:55:09;2.30;;;0.50;;
31386;SDS011;18017;50.124;8.688;2022-10-16T15:57:37;0.82;;;0.40;;
31386;SDS011;18017;50.124;8.688;2022-10-16T16:00:05;3.10;;;0.82;;
31386;SDS011;18017;50.124;8.688;2022-10-16T16:02:33;4.80;;;0.90;;
31386;SDS011;18017;50.124;8.688;2022-10-16T16:05:01;2.42;;;0.60;;
31386;SDS011;18017;50.124;8.688;2022-10-16T16:07:27;1.75;;;0.60;;
31386;SDS011;18017;50.124;8.688;2022-10-16T16:09:53;1.25;;;0.52;;
31386;SDS011;18017;50.124;8.688;2022-10-16T16:12:19;4.00;;;0.50;;
31386;SDS011;18017;50.124;8.688;2022-10-16T16:14:44;1.25;;;0.60;;
31386;SDS011;18017;50.124;8.688;2022-10-16T16:17:13;3.97;;;0.90;;
31386;SDS011;18017;50.124;8.688;2022-10-16T16:19:39;3.45;;;1.23;;
31386;SDS011;18017;50.124;8.688;2022-10-16T16:22:07;3.55;;;0.73;;
31386;SDS011;18017;50.124;8.688;2022-10-16T16:24:33;4.68;;;0.80;;
31386;SDS011;18017;50.124;8.688;2022-10-16T16:26:58;2.25;;;0.95;;
31386;SDS011;18017;50.124;8.688;2022-10-16T16:29:24;3.70;;;0.95;;
31386;SDS011;18017;50.124;8.688;2022-10-16T16:31:49;4.32;;;0.80;;
31386;SDS011;18017;50.124;8.688;2022-10-16T16:34:15;2.88;;;0.93;;
31386;SDS011;18017;50.124;8.688;2022-10-16T16:36:40;4.38;;;0.90;;
31386;SDS011;18017;50.124;8.688;2022-10-16T16:39:06;7.10;;;1.25;;
31386;SDS011;18017;50.124;8.688;2022-10-16T16:41:32;4.95;;;1.30;;